ADDS METAR Data INFO
IDs: Format: Raw Decoded Include TAF

Data at: 2044 UTC 16 Dec 2017

KEDU 162035Z AUTO 34022G29KT 10SM CLR 15/M06 A2997 RMK AO1
KEDU 162015Z AUTO 35019G33KT 10SM CLR 15/M06 A2998 RMK AO1
KEDU 161955Z AUTO 35023G31KT 10SM CLR 15/M06 A2999 RMK AO1
KEDU 161935Z AUTO 34019G31KT 10SM CLR 15/M05 A2999 RMK AO1
KEDU 161920Z AUTO 34017G31KT 10SM CLR 14/M05 A3000 RMK AO1
KEDU 161855Z AUTO 34022G30KT 10SM CLR 14/M05 A3000 RMK AO1
KEDU 161835Z AUTO 34027G31KT 10SM CLR 14/M05 A2998 RMK AO1
KEDU 161815Z AUTO 34020G32KT 10SM CLR 13/M04 A2999 RMK AO1
KEDU 161755Z AUTO 35022G31KT 10SM CLR 13/M04 A3000 RMK AO1
KEDU 161735Z AUTO 35019G26KT 10SM CLR 13/M04 A3000 RMK AO1
KEDU 161715Z AUTO 34021G33KT 10SM CLR 12/M04 A3000 RMK AO1
KEDU 161655Z AUTO 34029G42KT 9SM CLR 12/M04 A2997 RMK AO1
KEDU 161635Z AUTO 34029G42KT 10SM CLR 12/M05 A2996 RMK AO1
KEDU 161615Z AUTO 34026G35KT 10SM CLR 11/M04 A2996 RMK AO1
KEDU 161555Z AUTO 34023G29KT 10SM CLR 11/M04 A2995 RMK AO1
KEDU 161535Z AUTO 34020G29KT 10SM CLR 11/M04 A2995 RMK AO1
KEDU 161515Z AUTO 34018G30KT 10SM CLR 11/M04 A2995 RMK AO1
KEDU 161500Z AUTO 34019G30KT 10SM CLR 11/M04 A2995 RMK AO1
KEDU 161435Z AUTO 34023G32KT 10SM CLR 11/M04 A2995 RMK AO1
KEDU 161415Z AUTO 33022G34KT 10SM CLR 11/M04 A2994 RMK AO1
KEDU 161355Z AUTO 33021G31KT 10SM CLR 12/M04 A2994 RMK AO1
KEDU 161335Z AUTO 33022G36KT 10SM CLR 12/M03 A2993 RMK AO1
KEDU 161315Z AUTO 33023G33KT 10SM CLR 12/M03 A2993 RMK AO1
KEDU 161255Z AUTO 33021G34KT 10SM CLR 12/M03 A2994 RMK AO1
KEDU 161235Z AUTO 33021G37KT 10SM CLR 13/M03 A2995 RMK AO1
KEDU 161215Z AUTO 33020G30KT 10SM CLR 13/M03 A2995 RMK AO1
KEDU 161155Z AUTO 33017G30KT 10SM CLR 13/M02 A2996 RMK AO1
KEDU 161135Z AUTO 33019G26KT 10SM CLR 13/M02 A2996 RMK AO1
KEDU 161115Z AUTO 33016G28KT 10SM CLR 13/00 A2995 RMK AO1
KEDU 161055Z AUTO 32014G22KT 10SM CLR 13/00 A2995 RMK AO1
KEDU 161035Z AUTO 33013G19KT 10SM CLR 13/00 A2995 RMK AO1
KEDU 161015Z AUTO 33009G15KT 10SM CLR 12/01 A2996 RMK AO1
KEDU 160955Z AUTO 33008KT 10SM CLR 11/02 A2996 RMK AO1
KEDU 160935Z AUTO 34008KT 10SM CLR 10/02 A2997 RMK AO1
KEDU 160915Z AUTO 32005KT 10SM CLR 09/02 A2997 RMK AO1
KEDU 160855Z AUTO 29004KT 10SM CLR 08/04 A2998 RMK AO1
KEDU 160835Z AUTO 27004KT 10SM CLR 07/05 A2999 RMK AO1
KEDU 160815Z AUTO 29003KT 10SM CLR 05/05 A3000 RMK AO1
KEDU 160755Z AUTO 00000KT 10SM CLR 07/05 A3001 RMK AO1
KEDU 160735Z AUTO 28003KT 10SM CLR 07/05 A3002 RMK AO1
KEDU 160715Z AUTO 26003KT 10SM CLR 05/05 A3002 RMK AO1
KEDU 160655Z AUTO 25003KT 10SM CLR 06/05 A3002 RMK AO1
KEDU 160635Z AUTO 00000KT 10SM CLR 08/05 A3002 RMK AO1
KEDU 160615Z AUTO 00000KT 10SM CLR 08/04 A3002 RMK AO1
KEDU 160555Z AUTO 00000KT 10SM CLR 09/04 A3003 RMK AO1
KEDU 160535Z AUTO 28003KT 10SM CLR 09/04 A3004 RMK AO1
KEDU 160515Z AUTO 30004KT 10SM CLR 09/05 A3004 RMK AO1
KEDU 160455Z AUTO 00000KT 10SM CLR 10/05 A3003 RMK AO1
KEDU 160435Z AUTO 27003KT 10SM CLR 09/05 A3004 RMK AO1
KEDU 160415Z AUTO 26003KT 10SM CLR 09/05 A3005 RMK AO1
KEDU 160355Z AUTO 31003KT 10SM CLR 10/05 A3006 RMK AO1
KEDU 160335Z AUTO 36003KT 10SM CLR 10/05 A3006 RMK AO1
KEDU 160315Z AUTO 33003KT 10SM CLR 11/05 A3007 RMK AO1
KEDU 160255Z AUTO 00000KT 10SM CLR 12/05 A3005 RMK AO1
KEDU 160235Z AUTO 00000KT 10SM CLR 11/05 A3005 RMK AO1
KEDU 160215Z AUTO 03003KT 10SM CLR 11/05 A3005 RMK AO1
KEDU 160155Z AUTO 04003KT 10SM CLR 12/05 A3005 RMK AO1
KEDU 160135Z AUTO 00000KT 10SM CLR 11/05 A3006 RMK AO1
KEDU 160115Z AUTO 00000KT 10SM CLR 12/05 A3007 RMK AO1
KEDU 160055Z AUTO 00000KT 9SM CLR 13/05 A3007 RMK AO1
KEDU 160035Z AUTO 00000KT 10SM CLR 13/05 A3006 RMK AO1
KEDU 160015Z AUTO 00000KT 9SM CLR 14/05 A3006 RMK AO1
KEDU 152355Z AUTO 00000KT 10SM CLR 15/05 A3006 RMK AO1
KEDU 152335Z AUTO 00000KT 9SM CLR 15/05 A3007 RMK AO1
KEDU 152315Z AUTO 00000KT 9SM CLR 15/04 A3007 RMK AO1
KEDU 152255Z AUTO 00000KT 9SM CLR 15/05 A3007 RMK AO1
KEDU 152235Z AUTO 00000KT 9SM CLR 15/04 A3008 RMK AO1
KEDU 152215Z AUTO 00000KT 9SM CLR 15/05 A3009 RMK AO1
KEDU 152155Z AUTO 00000KT 9SM CLR 15/05 A3009 RMK AO1
KEDU 152135Z AUTO 00000KT 9SM CLR 15/05 A3010 RMK AO1
KEDU 152115Z AUTO 00000KT 9SM CLR 15/05 A3010 RMK AO1
KEDU 152055Z AUTO 00000KT 9SM CLR 14/05 A3013 RMK AO1
KEDU 152035Z AUTO 00000KT 9SM CLR 14/05 A3015 RMK AO1
KEDU 152015Z AUTO 00000KT 9SM CLR 13/05 A3016 RMK AO1
KEDU 151955Z AUTO 00000KT 8SM CLR 12/05 A3017 RMK AO1
KEDU 151935Z AUTO 00000KT 8SM CLR 12/05 A3018 RMK AO1
KEDU 151915Z AUTO 04003KT 9SM CLR 10/05 A3019 RMK AO1
KEDU 151855Z AUTO 35003KT 8SM CLR 10/05 A3021 RMK AO1
KEDU 151835Z AUTO 36003KT 9SM CLR 09/04 A3021 RMK AO1
KEDU 151815Z AUTO 03005KT 9SM CLR 09/04 A3022 RMK AO1
KEDU 151755Z AUTO 04003KT 10SM CLR 08/04 A3022 RMK AO1
KEDU 151735Z AUTO 00000KT 10SM CLR 07/02 A3022 RMK AO1
KEDU 151715Z AUTO 00000KT 10SM CLR 05/03 A3022 RMK AO1
KEDU 151655Z AUTO 00000KT 10SM CLR 04/02 A3021 RMK AO1
KEDU 151635Z AUTO 00000KT 9SM CLR 03/02 A3021 RMK AO1
KEDU 151615Z AUTO 00000KT 9SM CLR 02/02 A3020 RMK AO1
KEDU 151555Z AUTO 00000KT 9SM CLR 02/02 A3021 RMK AO1
KEDU 151535Z AUTO 00000KT 9SM CLR 03/02 A3021 RMK AO1
KEDU 151515Z AUTO 34003KT 9SM CLR 02/02 A3021 RMK AO1
KEDU 151455Z AUTO 34003KT 10SM CLR 02/01 A3021 RMK AO1
KEDU 151435Z AUTO 00000KT 10SM CLR 02/01 A3021 RMK AO1
KEDU 151415Z AUTO 00000KT 9SM CLR 00/00 A3021 RMK AO1
KEDU 151355Z AUTO 00000KT 10SM CLR 00/00 A3021 RMK AO1
KEDU 151335Z AUTO 00000KT 10SM CLR 02/01 A3021 RMK AO1
KEDU 151315Z AUTO 00000KT 9SM CLR 02/02 A3020 RMK AO1
KEDU 151255Z AUTO 00000KT 10SM CLR 01/00 A3020 RMK AO1
KEDU 151235Z AUTO 00000KT 10SM CLR 01/00 A3022 RMK AO1
KEDU 151215Z AUTO 00000KT 10SM CLR 02/02 A3021 RMK AO1
KEDU 151155Z AUTO 00000KT 9SM CLR 03/02 A3021 RMK AO1
KEDU 151135Z AUTO 34003KT 10SM CLR 03/02 A3021 RMK AO1
KEDU 151115Z AUTO 34003KT 10SM CLR 03/02 A3023 RMK AO1
KEDU 151055Z AUTO 35003KT 10SM CLR 03/02 A3023 RMK AO1
KEDU 151035Z AUTO 00000KT 10SM CLR 02/02 A3022 RMK AO1
KEDU 151015Z AUTO 36005KT 10SM CLR 04/02 A3022 RMK AO1
KEDU 150955Z AUTO 00000KT 10SM CLR 02/02 A3021 RMK AO1
KEDU 150935Z AUTO 00000KT 10SM CLR 02/01 A3021 RMK AO1
KEDU 150915Z AUTO 00000KT 10SM CLR 03/02 A3021 RMK AO1
KEDU 150855Z AUTO 00000KT 10SM CLR 02/01 A3021 RMK AO1